Terminal Aerodrome Forecast
Issued by NWS

Home | Current Version | Previous Version | Text Only | Print | Product List | Glossary On
Versions: 1 2 3 4 5 6 7 8 9 10 11 12 13 14 15 16 17 18 19 20 21 22 23 24 25 26 27 28
598
FTUS41 KILN 052341
TAFLUK
TAF
KLUK 052341Z 0600/0624 06004KT P6SM BKN250
     FM060300 06005KT P6SM BKN120
     FM061000 06005KT P6SM -RA SCT009 OVC028
     FM061400 04003KT 3SM -RA BR OVC009
     FM061900 29008KT P6SM OVC015=

USA.gov is the U.S. government's official web portal to all federal, state and local government web resources and services.